createdAt,value
2018-07-24T00:00:14.676Z,15.10
2018-07-24T00:01:20.134Z,12.90
2018-07-24T00:02:25.590Z,14.93
2018-07-24T00:03:31.031Z,16.57
2018-07-24T00:04:36.533Z,13.03
2018-07-24T00:05:41.987Z,16.73
2018-07-24T00:06:47.651Z,15.97
2018-07-24T00:07:53.297Z,16.30
2018-07-24T00:08:58.871Z,14.40
2018-07-24T00:10:04.857Z,15.27
2018-07-24T00:11:10.346Z,14.37
2018-07-24T00:12:16.053Z,17.40
2018-07-24T00:13:21.563Z,15.17
2018-07-24T00:14:26.990Z,16.97
2018-07-24T00:15:32.388Z,16.83
2018-07-24T00:16:37.792Z,16.90
2018-07-24T00:17:43.220Z,15.50
2018-07-24T00:18:48.661Z,13.80
2018-07-24T00:19:54.100Z,15.47
2018-07-24T00:20:59.596Z,17.97
2018-07-24T00:22:05.089Z,15.63
2018-07-24T00:23:10.532Z,16.23
2018-07-24T00:24:16.005Z,14.87
2018-07-24T00:25:21.500Z,14.83
2018-07-24T00:26:26.993Z,15.00
2018-07-24T00:27:32.437Z,15.60
2018-07-24T00:28:37.865Z,13.63
2018-07-24T00:29:43.460Z,18.90
2018-07-24T00:30:48.898Z,17.77
2018-07-24T00:31:54.480Z,14.20
2018-07-24T00:32:59.905Z,13.17
2018-07-24T00:34:05.392Z,17.37
2018-07-24T00:35:10.839Z,14.60
2018-07-24T00:36:16.281Z,13.17
2018-07-24T00:37:21.888Z,12.03
2018-07-24T00:38:27.356Z,12.97
2018-07-24T00:39:33.031Z,12.50
2018-07-24T00:40:38.452Z,13.53
2018-07-24T00:41:44.070Z,15.43
2018-07-24T00:42:49.654Z,15.10
2018-07-24T00:43:55.251Z,15.50
2018-07-24T00:45:00.673Z,18.67
2018-07-24T00:46:06.242Z,15.00
2018-07-24T00:47:11.749Z,14.57
2018-07-24T00:48:17.296Z,15.30
2018-07-24T00:49:22.717Z,12.83
2018-07-24T00:50:28.175Z,13.50
2018-07-24T00:51:33.589Z,16.70
2018-07-24T00:52:38.992Z,15.13
2018-07-24T00:53:44.461Z,15.53
2018-07-24T00:54:49.932Z,14.43
2018-07-24T00:55:55.378Z,12.60
2018-07-24T00:57:00.848Z,15.70
2018-07-24T00:58:06.492Z,16.97
2018-07-24T00:59:11.957Z,19.73
2018-07-24T01:00:17.357Z,17.07
2018-07-24T01:01:22.852Z,16.97
2018-07-24T01:02:28.283Z,13.40
2018-07-24T01:03:33.963Z,16.73
2018-07-24T01:04:39.381Z,14.70
2018-07-24T01:05:44.949Z,13.63
2018-07-24T01:06:50.424Z,14.63
2018-07-24T01:07:55.854Z,19.70
2018-07-24T01:09:01.249Z,19.17
2018-07-24T01:10:07.413Z,22.13
2018-07-24T01:11:12.904Z,15.87
2018-07-24T01:12:18.344Z,16.07
2018-07-24T01:13:23.776Z,18.00
2018-07-24T01:14:29.237Z,15.70
2018-07-24T01:15:34.656Z,15.10
2018-07-24T01:16:40.089Z,19.57
2018-07-24T01:17:45.505Z,17.60
2018-07-24T01:18:50.732Z,16.63
2018-07-24T01:19:56.182Z,21.27
2018-07-24T01:21:01.698Z,16.07
2018-07-24T01:22:07.150Z,18.60
2018-07-24T01:23:12.605Z,19.53
2018-07-24T01:24:18.070Z,20.00
2018-07-24T01:25:23.511Z,18.67
2018-07-24T01:26:28.938Z,20.90
2018-07-24T01:27:34.333Z,16.17
2018-07-24T01:28:39.761Z,15.70
2018-07-24T01:29:45.226Z,15.63
2018-07-24T01:30:50.652Z,18.43
2018-07-24T01:31:56.161Z,15.93
2018-07-24T01:33:01.648Z,14.93
2018-07-24T01:34:07.108Z,17.33
2018-07-24T01:35:12.533Z,16.13
2018-07-24T01:36:17.702Z,19.53
2018-07-24T01:37:23.093Z,13.97
2018-07-24T01:38:28.581Z,19.00
2018-07-24T01:39:34.068Z,18.77
2018-07-24T01:40:39.511Z,22.80
2018-07-24T01:41:45.103Z,17.83
2018-07-24T01:42:51.014Z,18.10
2018-07-24T01:43:56.877Z,19.60
2018-07-24T01:45:02.331Z,18.40
2018-07-24T01:46:07.776Z,20.73
2018-07-24T01:47:13.265Z,16.87
2018-07-24T01:48:18.713Z,18.23
2018-07-24T01:49:24.196Z,18.60
2018-07-24T01:50:29.612Z,16.17
2018-07-24T01:51:35.052Z,19.00
2018-07-24T01:52:40.539Z,22.70
2018-07-24T01:53:46.000Z,18.53
2018-07-24T01:54:51.475Z,21.20
2018-07-24T01:55:56.940Z,19.00
2018-07-24T01:57:02.397Z,18.90
2018-07-24T01:58:07.863Z,15.43
2018-07-24T01:59:13.400Z,20.87
2018-07-24T02:00:19.180Z,18.40
2018-07-24T02:01:24.664Z,20.83
2018-07-24T02:02:30.100Z,20.90
2018-07-24T02:03:35.502Z,19.67
2018-07-24T02:04:40.936Z,20.03
2018-07-24T02:05:46.401Z,30.53
2018-07-24T02:06:52.580Z,22.17
2018-07-24T02:07:58.029Z,20.20
2018-07-24T02:09:11.122Z,18.80
2018-07-24T02:10:16.605Z,19.60
2018-07-24T02:11:22.056Z,22.77
2018-07-24T02:12:27.558Z,18.73
2018-07-24T02:13:32.983Z,21.60
2018-07-24T02:14:38.444Z,20.83
2018-07-24T02:15:43.877Z,20.00
2018-07-24T02:16:49.276Z,21.93
2018-07-24T02:17:54.732Z,23.90
2018-07-24T02:19:00.179Z,21.00
2018-07-24T02:20:06.062Z,23.93
2018-07-24T02:21:11.525Z,20.40
2018-07-24T02:22:16.973Z,23.30
2018-07-24T02:23:22.461Z,23.87
2018-07-24T02:24:27.860Z,19.93
2018-07-24T02:25:33.324Z,20.60
2018-07-24T02:26:38.838Z,19.40
2018-07-24T02:27:44.289Z,25.33
2018-07-24T02:28:49.723Z,23.33
2018-07-24T02:29:55.124Z,21.27
2018-07-24T02:31:00.528Z,20.27
2018-07-24T02:32:06.349Z,18.40
2018-07-24T02:33:11.781Z,22.20
2018-07-24T02:34:17.224Z,22.77
2018-07-24T02:35:22.666Z,24.23
2018-07-24T02:36:28.178Z,19.60
2018-07-24T02:37:33.680Z,20.43
2018-07-24T02:38:39.186Z,20.53
2018-07-24T02:39:45.096Z,26.53
2018-07-24T02:40:50.513Z,18.10
2018-07-24T02:41:55.943Z,23.57
2018-07-24T02:43:01.357Z,18.20
2018-07-24T02:44:06.860Z,23.43
2018-07-24T02:45:12.377Z,22.03
2018-07-24T02:46:18.282Z,24.67
2018-07-24T02:47:23.715Z,22.97
2018-07-24T02:48:29.169Z,25.60
2018-07-24T02:49:34.733Z,26.53
2018-07-24T02:50:40.238Z,23.73
2018-07-24T02:51:45.668Z,22.27
2018-07-24T02:52:51.081Z,21.50
2018-07-24T02:53:56.528Z,24.33
2018-07-24T02:55:01.654Z,22.93
2018-07-24T02:56:07.868Z,21.80
2018-07-24T02:57:13.272Z,22.50
2018-07-24T02:58:18.723Z,19.17
2018-07-24T02:59:24.178Z,23.20
2018-07-24T03:00:29.613Z,19.57
2018-07-24T03:01:35.141Z,21.53
2018-07-24T03:02:40.606Z,21.60
2018-07-24T03:03:46.460Z,20.03
2018-07-24T03:04:51.885Z,21.37
2018-07-24T03:05:57.319Z,24.20
2018-07-24T03:07:02.740Z,23.70
2018-07-24T03:08:08.217Z,25.40
2018-07-24T03:09:14.277Z,22.63
2018-07-24T03:10:19.733Z,23.50
2018-07-24T03:11:25.145Z,21.73
2018-07-24T03:12:30.564Z,20.07
2018-07-24T03:13:36.066Z,21.30
2018-07-24T03:14:41.532Z,23.37
2018-07-24T03:15:46.993Z,23.53
2018-07-24T03:16:52.513Z,22.70
2018-07-24T03:17:57.970Z,24.90
2018-07-24T03:19:03.396Z,25.00
2018-07-24T03:20:08.825Z,21.80
2018-07-24T03:21:14.227Z,22.27
2018-07-24T03:22:19.678Z,23.50
2018-07-24T03:23:25.152Z,20.63
2018-07-24T03:24:30.634Z,23.20
2018-07-24T03:25:36.073Z,25.30
2018-07-24T03:26:41.464Z,27.70
2018-07-24T03:27:46.888Z,28.10
2018-07-24T03:28:52.312Z,29.27
2018-07-24T03:29:57.866Z,28.83
2018-07-24T03:31:03.354Z,24.57
2018-07-24T03:32:08.793Z,29.53
2018-07-24T03:33:14.454Z,32.17
2018-07-24T03:34:19.876Z,29.70
2018-07-24T03:35:25.366Z,31.87
2018-07-24T03:36:30.879Z,27.97
2018-07-24T03:37:36.458Z,25.87
2018-07-24T03:38:41.872Z,22.10
2018-07-24T03:39:47.377Z,23.60
2018-07-24T03:40:53.147Z,25.60
2018-07-24T03:41:58.647Z,26.37
2018-07-24T03:43:04.177Z,27.80
2018-07-24T03:44:09.745Z,27.70
2018-07-24T03:45:15.161Z,27.50
2018-07-24T03:46:20.725Z,34.43
2018-07-24T03:47:26.201Z,31.80
2018-07-24T03:48:31.689Z,32.73
2018-07-24T03:49:38.250Z,31.50
2018-07-24T03:50:43.789Z,32.10
2018-07-24T03:51:49.292Z,30.83
2018-07-24T03:52:54.721Z,29.30
2018-07-24T03:54:00.160Z,34.33
2018-07-24T03:55:05.797Z,32.40
2018-07-24T03:56:11.448Z,35.90
2018-07-24T03:57:16.920Z,34.27
2018-07-24T03:58:22.340Z,35.70
2018-07-24T03:59:27.801Z,30.93
2018-07-24T04:00:33.320Z,34.70
2018-07-24T04:01:38.771Z,36.30
2018-07-24T04:02:44.219Z,28.47
2018-07-24T04:03:49.687Z,33.20
2018-07-24T04:04:55.129Z,35.00
2018-07-24T04:06:00.625Z,30.40
2018-07-24T04:07:06.120Z,31.63
2018-07-24T04:08:11.675Z,31.17
2018-07-24T04:09:17.069Z,29.40
2018-07-24T04:10:22.945Z,31.00
2018-07-24T04:11:28.383Z,26.30
2018-07-24T04:12:33.917Z,29.37
2018-07-24T04:13:39.429Z,27.53
2018-07-24T04:14:44.895Z,30.00
2018-07-24T04:15:50.368Z,24.87
2018-07-24T04:16:55.773Z,30.10
2018-07-24T04:18:01.214Z,33.17
2018-07-24T04:19:06.754Z,28.40
2018-07-24T04:20:12.321Z,28.93
2018-07-24T04:21:18.868Z,35.53
2018-07-24T04:22:24.376Z,30.57
2018-07-24T04:23:29.793Z,26.43
2018-07-24T04:24:35.267Z,25.70
2018-07-24T04:25:41.097Z,31.97
2018-07-24T04:26:46.539Z,26.83
2018-07-24T04:27:52.001Z,31.10
2018-07-24T04:28:57.456Z,23.60
2018-07-24T04:30:02.984Z,22.87
2018-07-24T04:31:08.519Z,28.37
2018-07-24T04:32:13.957Z,25.63
2018-07-24T04:33:19.436Z,24.13
2018-07-24T04:34:24.896Z,22.40
2018-07-24T04:35:30.395Z,24.13
2018-07-24T04:36:35.969Z,24.07
2018-07-24T04:37:41.397Z,22.00
2018-07-24T04:38:46.795Z,26.63
2018-07-24T04:39:52.500Z,23.17
2018-07-24T04:40:57.919Z,21.30
2018-07-24T04:42:03.487Z,30.10
2018-07-24T04:43:08.998Z,22.80
2018-07-24T04:44:14.479Z,29.40
2018-07-24T04:45:19.993Z,20.37
2018-07-24T04:46:25.461Z,20.83
2018-07-24T04:47:30.906Z,21.80
2018-07-24T04:48:36.521Z,18.80
2018-07-24T04:49:42.244Z,21.53
2018-07-24T04:50:47.691Z,20.83
2018-07-24T04:51:53.191Z,17.67
2018-07-24T04:52:58.648Z,19.50
2018-07-24T04:54:04.134Z,27.53
2018-07-24T04:55:09.637Z,17.80
2018-07-24T04:56:15.132Z,19.23
2018-07-24T04:57:20.617Z,18.53
2018-07-24T04:58:26.115Z,21.40
2018-07-24T04:59:31.612Z,18.70
2018-07-24T05:00:37.034Z,16.43
2018-07-24T05:01:42.498Z,18.97
2018-07-24T05:02:47.901Z,15.90
2018-07-24T05:03:53.330Z,19.93
2018-07-24T05:04:58.825Z,14.17
2018-07-24T05:06:04.311Z,18.70
2018-07-24T05:07:10.922Z,17.37
2018-07-24T05:08:16.353Z,16.40
2018-07-24T05:09:21.824Z,18.57
2018-07-24T05:10:27.309Z,18.03
2018-07-24T05:11:32.695Z,18.83
2018-07-24T05:12:38.281Z,17.47
2018-07-24T05:13:43.692Z,20.27
2018-07-24T05:14:49.448Z,18.00
2018-07-24T05:15:54.888Z,19.87
2018-07-24T05:17:00.370Z,18.53
2018-07-24T05:18:05.885Z,20.13
2018-07-24T05:19:11.377Z,16.53
2018-07-24T05:20:16.897Z,17.83
2018-07-24T05:21:22.882Z,21.37
2018-07-24T05:22:28.362Z,20.80
2018-07-24T05:23:34.512Z,16.37
2018-07-24T05:24:39.978Z,30.57
2018-07-24T05:25:45.496Z,19.00
2018-07-24T05:26:50.939Z,17.93
2018-07-24T05:27:56.345Z,21.93
2018-07-24T05:29:01.749Z,20.00
2018-07-24T05:30:07.837Z,19.03
2018-07-24T05:31:13.293Z,19.63
2018-07-24T05:32:18.853Z,18.33
2018-07-24T05:33:24.324Z,18.43
2018-07-24T05:34:29.732Z,18.57
2018-07-24T05:35:35.235Z,23.47
2018-07-24T05:36:40.632Z,20.37
2018-07-24T05:37:46.066Z,27.60
2018-07-24T05:38:51.780Z,18.23
2018-07-24T05:39:57.213Z,21.23
2018-07-24T05:41:02.648Z,16.70
2018-07-24T05:42:08.105Z,18.77
2018-07-24T05:43:13.590Z,18.97
2018-07-24T05:44:19.040Z,20.60
2018-07-24T05:45:24.576Z,21.93
2018-07-24T05:46:30.017Z,21.90
2018-07-24T05:47:35.575Z,21.03
2018-07-24T05:48:41.097Z,23.30
2018-07-24T05:49:46.478Z,18.40
2018-07-24T05:50:51.915Z,20.30
2018-07-24T05:51:57.388Z,17.23
2018-07-24T05:53:02.853Z,17.70
2018-07-24T05:54:08.524Z,22.33
2018-07-24T05:55:14.047Z,20.77
2018-07-24T05:56:19.513Z,18.63
2018-07-24T05:57:25.384Z,20.23
2018-07-24T05:58:30.841Z,18.00
2018-07-24T05:59:36.471Z,16.97
2018-07-24T06:00:41.942Z,19.83
2018-07-24T06:01:47.437Z,18.90
2018-07-24T06:02:52.869Z,16.20
2018-07-24T06:03:58.305Z,20.27
2018-07-24T06:05:03.849Z,16.50
2018-07-24T06:06:09.569Z,16.63
2018-07-24T06:07:15.178Z,17.70
2018-07-24T06:08:20.566Z,20.93
2018-07-24T06:09:25.968Z,22.17
2018-07-24T06:10:31.438Z,24.53
2018-07-24T06:11:36.974Z,17.10
2018-07-24T06:12:42.453Z,17.60
2018-07-24T06:13:47.917Z,18.43
2018-07-24T06:14:53.360Z,19.83
2018-07-24T06:15:58.934Z,18.57
2018-07-24T06:17:04.495Z,16.67
2018-07-24T06:18:09.987Z,23.37
2018-07-24T06:19:15.423Z,17.77
2018-07-24T06:20:20.900Z,15.73
2018-07-24T06:21:26.468Z,22.27
2018-07-24T06:22:31.908Z,20.33
2018-07-24T06:23:37.405Z,15.33
2018-07-24T06:24:42.849Z,17.47
2018-07-24T06:25:48.292Z,16.00
2018-07-24T06:26:53.806Z,15.43
2018-07-24T06:27:59.232Z,15.17
2018-07-24T06:29:04.735Z,15.47
2018-07-24T06:30:10.210Z,13.70
2018-07-24T06:31:15.612Z,22.50
2018-07-24T06:32:21.238Z,13.13
2018-07-24T06:33:26.651Z,15.47
2018-07-24T06:34:32.104Z,15.83
2018-07-24T06:35:37.594Z,17.67
2018-07-24T06:36:43.077Z,19.03
2018-07-24T06:37:48.540Z,11.53
2018-07-24T06:38:53.952Z,15.67
2018-07-24T06:39:59.464Z,13.70
2018-07-24T06:41:05.029Z,17.77
2018-07-24T06:42:10.657Z,17.07
2018-07-24T06:43:16.512Z,17.73
2018-07-24T06:44:22.060Z,15.23
2018-07-24T06:45:27.456Z,15.33
2018-07-24T06:46:33.062Z,12.80
2018-07-24T06:47:38.551Z,15.50
2018-07-24T06:48:44.014Z,12.53
2018-07-24T06:49:49.569Z,14.83
2018-07-24T06:50:55.011Z,16.20
2018-07-24T06:52:00.528Z,18.30
2018-07-24T06:53:06.110Z,15.37
2018-07-24T06:54:11.568Z,13.97
2018-07-24T06:55:17.072Z,12.73
2018-07-24T06:56:22.521Z,14.10
2018-07-24T06:57:27.972Z,14.80
2018-07-24T06:58:33.601Z,18.27
2018-07-24T06:59:39.066Z,17.83
2018-07-24T07:00:44.526Z,19.20
2018-07-24T07:01:49.986Z,13.60
2018-07-24T07:02:55.457Z,13.47
2018-07-24T07:04:01.419Z,14.93
2018-07-24T07:05:07.399Z,23.37
2018-07-24T07:06:12.785Z,19.30
2018-07-24T07:07:18.229Z,12.20
2018-07-24T07:08:23.769Z,12.33
2018-07-24T07:09:29.224Z,11.10
2018-07-24T07:10:34.737Z,13.00
2018-07-24T07:11:40.190Z,15.70
2018-07-24T07:12:45.582Z,15.57
2018-07-24T07:13:51.046Z,11.77
2018-07-24T07:14:56.530Z,12.70
2018-07-24T07:16:02.476Z,20.10
2018-07-24T07:17:08.137Z,17.83
2018-07-24T07:18:13.593Z,11.30
2018-07-24T07:19:19.458Z,12.83
2018-07-24T07:20:25.005Z,15.43
2018-07-24T07:21:30.557Z,13.33
2018-07-24T07:22:36.019Z,15.80
2018-07-24T07:23:41.446Z,18.50
2018-07-24T07:24:46.869Z,13.33
2018-07-24T07:25:52.294Z,11.27
2018-07-24T07:26:57.772Z,14.03
2018-07-24T07:28:03.298Z,11.10
2018-07-24T07:29:09.384Z,13.43
2018-07-24T07:30:14.827Z,10.87
2018-07-24T07:31:20.270Z,12.50
2018-07-24T07:32:25.777Z,11.00
2018-07-24T07:33:31.198Z,21.40
2018-07-24T07:34:37.204Z,10.53
2018-07-24T07:35:42.709Z,14.30
2018-07-24T07:36:48.190Z,15.13
2018-07-24T07:37:53.674Z,9.73
2018-07-24T07:38:59.113Z,12.80
2018-07-24T07:40:05.158Z,12.20
2018-07-24T07:41:10.807Z,14.77
2018-07-24T07:42:16.238Z,12.30
2018-07-24T07:43:21.687Z,10.03
2018-07-24T07:44:27.134Z,10.27
2018-07-24T07:45:33.060Z,12.00
2018-07-24T07:46:38.543Z,15.50
2018-07-24T07:47:43.983Z,10.93
2018-07-24T07:48:49.380Z,10.60
2018-07-24T07:49:54.794Z,12.70
2018-07-24T07:51:00.309Z,10.70
2018-07-24T07:52:05.831Z,9.57
2018-07-24T07:53:11.277Z,10.73
2018-07-24T07:54:16.696Z,7.90
2018-07-24T07:55:21.811Z,11.57
2018-07-24T07:56:27.625Z,6.90
2018-07-24T07:57:33.215Z,10.77
2018-07-24T07:58:38.391Z,9.93
2018-07-24T07:59:43.720Z,7.93
2018-07-24T08:00:49.142Z,10.90
2018-07-24T08:01:55.026Z,12.97
2018-07-24T08:03:00.525Z,6.73
2018-07-24T08:04:06.560Z,7.13
2018-07-24T08:05:11.985Z,8.10
2018-07-24T08:06:17.412Z,10.13
2018-07-24T08:07:23.056Z,9.07
2018-07-24T08:08:28.469Z,7.90
2018-07-24T08:09:34.344Z,7.13
2018-07-24T08:10:39.809Z,7.23
2018-07-24T08:11:45.269Z,7.80
2018-07-24T08:12:50.748Z,8.13
2018-07-24T08:13:56.325Z,9.10
2018-07-24T08:15:01.817Z,9.83
2018-07-24T08:16:07.479Z,6.27
2018-07-24T08:17:13.365Z,6.70
2018-07-24T08:18:18.798Z,9.60
2018-07-24T08:19:24.218Z,6.37
2018-07-24T08:20:29.647Z,10.10
2018-07-24T08:21:35.269Z,5.73
2018-07-24T08:22:40.765Z,13.30
2018-07-24T08:23:46.237Z,12.30
2018-07-24T08:24:51.641Z,8.50
2018-07-24T08:25:57.435Z,7.43
2018-07-24T08:27:02.918Z,7.17
2018-07-24T08:28:08.561Z,10.63
2018-07-24T08:29:13.970Z,7.03
2018-07-24T08:30:19.454Z,8.23
2018-07-24T08:31:24.920Z,9.87
2018-07-24T08:32:30.357Z,5.20
2018-07-24T08:33:36.226Z,6.13
2018-07-24T08:34:41.625Z,5.30
2018-07-24T08:35:47.106Z,7.60
2018-07-24T08:36:52.492Z,7.03
2018-07-24T08:37:57.920Z,8.13
2018-07-24T08:39:04.041Z,8.03
2018-07-24T08:40:09.460Z,6.07
2018-07-24T08:41:14.933Z,6.13
2018-07-24T08:42:20.363Z,5.13
2018-07-24T08:43:25.749Z,4.10
2018-07-24T08:44:31.688Z,4.30
2018-07-24T08:45:37.168Z,5.23
2018-07-24T08:46:42.560Z,5.57
2018-07-24T08:47:47.950Z,3.77
2018-07-24T08:48:53.334Z,6.13
2018-07-24T08:49:58.881Z,4.43
2018-07-24T08:51:04.674Z,4.90
2018-07-24T08:52:10.265Z,3.30
2018-07-24T08:53:15.831Z,5.73
2018-07-24T08:54:21.163Z,3.87
2018-07-24T08:55:27.040Z,4.57
2018-07-24T08:56:32.589Z,3.97
2018-07-24T08:57:38.329Z,5.13
2018-07-24T08:58:43.713Z,6.20
2018-07-24T09:01:18.197Z,8.20
2018-07-24T09:02:23.710Z,4.43
2018-07-24T09:03:29.209Z,6.37
2018-07-24T09:04:34.822Z,8.00
2018-07-24T09:05:40.310Z,7.03
2018-07-24T09:06:45.813Z,6.30
2018-07-24T09:07:51.214Z,7.60
2018-07-24T09:08:56.693Z,4.60
2018-07-24T09:10:02.213Z,7.80
2018-07-24T09:11:07.821Z,4.60
2018-07-24T09:12:13.324Z,6.40
2018-07-24T09:13:18.443Z,4.77
2018-07-24T09:14:23.793Z,4.83
2018-07-24T09:15:29.310Z,6.37
2018-07-24T09:16:35.197Z,6.57
2018-07-24T09:17:40.680Z,4.97
2018-07-24T09:18:46.097Z,5.93
2018-07-24T09:19:51.508Z,7.10
2018-07-24T09:20:56.912Z,11.30
2018-07-24T09:22:02.362Z,8.80
2018-07-24T09:23:07.973Z,4.50
2018-07-24T09:24:13.505Z,11.87
2018-07-24T09:25:18.959Z,7.17
2018-07-24T09:26:24.381Z,9.43
2018-07-24T09:27:29.800Z,5.33
2018-07-24T09:28:35.905Z,5.10
2018-07-24T09:29:41.349Z,5.27
2018-07-24T09:30:46.742Z,10.83
2018-07-24T09:31:52.171Z,5.80
2018-07-24T09:32:57.585Z,7.20
2018-07-24T09:34:03.053Z,6.10
2018-07-24T09:35:08.468Z,7.23
2018-07-24T09:36:13.894Z,7.33
2018-07-24T09:37:19.328Z,9.23
2018-07-24T09:38:24.751Z,9.57
2018-07-24T09:39:30.188Z,7.23
2018-07-24T09:40:35.754Z,6.37
2018-07-24T09:41:41.181Z,5.83
2018-07-24T09:42:46.580Z,5.80
2018-07-24T09:43:52.313Z,7.33
2018-07-24T09:44:57.744Z,5.00
2018-07-24T09:46:03.254Z,7.73
2018-07-24T09:47:08.697Z,5.87
2018-07-24T09:48:14.149Z,5.10
2018-07-24T09:49:19.661Z,6.73
2018-07-24T09:50:25.126Z,5.07
2018-07-24T09:51:30.537Z,5.33
2018-07-24T09:52:36.028Z,4.77
2018-07-24T09:53:41.165Z,5.30
2018-07-24T09:54:46.545Z,6.83
2018-07-24T09:55:52.217Z,4.97
2018-07-24T09:56:57.921Z,8.13
2018-07-24T09:58:03.429Z,5.50
2018-07-24T09:59:09.128Z,5.73
2018-07-24T10:00:14.682Z,5.10
2018-07-24T10:01:25.319Z,6.23
2018-07-24T10:02:30.757Z,6.37
2018-07-24T10:03:36.194Z,6.67
2018-07-24T10:04:41.665Z,4.80
2018-07-24T10:05:47.108Z,6.13
2018-07-24T10:06:52.553Z,9.63
2018-07-24T10:07:58.023Z,6.07
2018-07-24T10:09:04.071Z,4.90
2018-07-24T10:10:09.505Z,6.00
2018-07-24T10:11:14.933Z,5.57
2018-07-24T10:12:20.409Z,5.30
2018-07-24T10:13:25.941Z,8.90
2018-07-24T10:14:31.349Z,4.27
2018-07-24T10:15:36.855Z,6.80
2018-07-24T10:16:42.432Z,8.97
2018-07-24T10:17:47.869Z,4.57
2018-07-24T10:18:53.330Z,4.20
2018-07-24T10:19:59.022Z,5.20
2018-07-24T10:21:04.581Z,4.13
2018-07-24T10:22:10.068Z,4.63
2018-07-24T10:23:15.505Z,5.57
2018-07-24T10:24:21.000Z,6.00
2018-07-24T10:25:26.492Z,5.00
2018-07-24T10:26:31.989Z,4.13
2018-07-24T10:27:37.429Z,5.40
2018-07-24T10:28:42.951Z,4.70
2018-07-24T10:29:48.393Z,6.10
2018-07-24T10:30:53.843Z,4.30
2018-07-24T10:31:59.327Z,10.83
2018-07-24T10:33:04.962Z,12.10
2018-07-24T10:34:10.604Z,4.80
2018-07-24T10:35:15.933Z,4.60
2018-07-24T10:36:21.358Z,4.20
2018-07-24T10:37:26.745Z,4.50
2018-07-24T10:38:32.192Z,7.87
2018-07-24T10:39:37.670Z,3.87
2018-07-24T10:40:43.200Z,5.00
2018-07-24T10:41:49.040Z,9.00
2018-07-24T10:42:54.683Z,7.20
2018-07-24T10:44:00.102Z,3.97
2018-07-24T10:45:05.929Z,5.50
2018-07-24T10:46:11.413Z,6.63
2018-07-24T10:47:16.830Z,8.97
2018-07-24T10:48:22.233Z,5.70
2018-07-24T10:49:27.617Z,4.10
2018-07-24T10:50:33.267Z,5.70
2018-07-24T10:51:38.737Z,3.90
2018-07-24T10:52:44.159Z,6.03
2018-07-24T10:53:49.998Z,8.40
2018-07-24T10:54:55.393Z,4.47
2018-07-24T10:56:01.209Z,6.00
2018-07-24T10:57:06.845Z,8.83
2018-07-24T10:58:12.274Z,6.53
2018-07-24T10:59:17.682Z,4.83
2018-07-24T11:00:23.148Z,7.13
2018-07-24T11:01:28.625Z,6.77
2018-07-24T11:02:34.252Z,5.93
2018-07-24T11:03:39.718Z,6.40
2018-07-24T11:04:44.808Z,4.47
2018-07-24T11:05:50.174Z,4.57
2018-07-24T11:06:55.634Z,5.37
2018-07-24T11:08:01.129Z,5.70
2018-07-24T11:09:09.179Z,9.47
2018-07-24T11:10:14.632Z,4.70
2018-07-24T11:11:20.077Z,4.87
2018-07-24T11:12:25.500Z,5.53
2018-07-24T11:13:31.007Z,5.13
2018-07-24T11:14:36.477Z,5.80
2018-07-24T11:15:41.879Z,5.30
2018-07-24T11:16:47.296Z,6.63
2018-07-24T11:17:52.749Z,4.73
2018-07-24T11:18:58.270Z,7.83
2018-07-24T11:20:03.793Z,4.40
2018-07-24T11:21:08.875Z,8.10
2018-07-24T11:22:14.200Z,5.67
2018-07-24T11:23:19.964Z,8.63
2018-07-24T11:24:25.368Z,7.23
2018-07-24T11:25:30.842Z,13.13
2018-07-24T11:26:36.376Z,5.70
2018-07-24T11:27:42.634Z,7.17
2018-07-24T11:28:48.066Z,4.97
2018-07-24T11:29:53.501Z,4.63
2018-07-24T11:30:58.993Z,5.23
2018-07-24T11:32:04.547Z,6.00
2018-07-24T11:33:10.196Z,7.30
2018-07-24T11:34:15.529Z,4.60
2018-07-24T11:35:20.975Z,4.33
2018-07-24T11:36:26.385Z,4.93
2018-07-24T11:37:31.822Z,3.83
2018-07-24T11:38:37.483Z,4.63
2018-07-24T11:39:42.937Z,4.43
2018-07-24T11:40:48.386Z,3.90
2018-07-24T11:41:53.823Z,5.80
2018-07-24T11:42:59.300Z,4.63
2018-07-24T11:44:04.898Z,3.90
2018-07-24T11:45:10.322Z,4.20
2018-07-24T11:46:15.737Z,4.53
2018-07-24T11:47:21.128Z,4.83
2018-07-24T11:48:26.596Z,4.07
2018-07-24T11:49:32.101Z,4.60
2018-07-24T11:50:37.594Z,4.13
2018-07-24T11:51:43.155Z,5.50
2018-07-24T11:52:48.605Z,5.10
2018-07-24T11:53:54.039Z,4.70
2018-07-24T11:55:00.058Z,6.13
2018-07-24T11:56:05.717Z,8.97
2018-07-24T11:57:11.220Z,4.47
2018-07-24T11:58:16.678Z,5.60
2018-07-24T11:59:22.590Z,10.90
2018-07-24T12:00:28.146Z,4.17
2018-07-24T12:01:34.572Z,4.13
2018-07-24T12:02:39.980Z,4.47
2018-07-24T12:03:45.364Z,4.50
2018-07-24T12:04:50.890Z,8.30
2018-07-24T12:05:56.261Z,6.27
2018-07-24T12:07:01.714Z,6.00
2018-07-24T12:08:07.172Z,4.83
2018-07-24T12:09:13.461Z,4.43
2018-07-24T12:10:18.901Z,3.90
2018-07-24T12:11:24.317Z,4.37
2018-07-24T12:12:29.755Z,5.60
2018-07-24T12:13:35.328Z,6.13
2018-07-24T12:14:40.747Z,5.73
2018-07-24T12:15:46.185Z,6.77
2018-07-24T12:16:51.871Z,3.40
2018-07-24T12:17:57.276Z,5.77
2018-07-24T12:19:02.846Z,4.80
2018-07-24T12:20:08.438Z,4.37
2018-07-24T12:21:13.877Z,5.17
2018-07-24T12:22:19.338Z,8.23
2018-07-24T12:23:24.803Z,14.10
2018-07-24T12:24:30.247Z,4.93
2018-07-24T12:25:35.709Z,9.67
2018-07-24T12:26:41.549Z,4.23
2018-07-24T12:27:46.657Z,3.70
2018-07-24T12:28:52.057Z,5.70
2018-07-24T12:29:57.564Z,4.90
2018-07-24T12:31:03.128Z,3.90
2018-07-24T12:32:08.597Z,3.87
2018-07-24T12:33:14.051Z,4.10
2018-07-24T12:34:19.565Z,8.20
2018-07-24T12:35:24.998Z,8.60
2018-07-24T12:36:30.398Z,7.17
2018-07-24T12:37:35.909Z,5.93
2018-07-24T12:38:41.349Z,4.30
2018-07-24T12:39:46.828Z,4.70
2018-07-24T12:40:52.248Z,5.43
2018-07-24T12:41:57.696Z,7.27
2018-07-24T12:43:03.137Z,4.73
2018-07-24T12:44:08.797Z,4.50
2018-07-24T12:45:14.581Z,4.43
2018-07-24T12:46:20.001Z,4.43
2018-07-24T12:47:25.407Z,6.93
2018-07-24T12:48:30.873Z,4.50
2018-07-24T12:49:36.319Z,4.10
2018-07-24T12:50:41.836Z,5.97
2018-07-24T12:51:47.269Z,5.80
2018-07-24T12:52:52.766Z,8.17
2018-07-24T12:53:58.251Z,4.60
2018-07-24T12:55:03.971Z,4.27
2018-07-24T12:56:09.466Z,4.93
2018-07-24T12:57:14.880Z,5.50
2018-07-24T12:58:20.395Z,6.07
2018-07-24T12:59:25.806Z,7.80
2018-07-24T13:00:31.297Z,8.33
2018-07-24T13:01:36.704Z,3.97
2018-07-24T13:02:42.140Z,4.60
2018-07-24T13:03:47.542Z,4.47
2018-07-24T13:04:53.260Z,4.17
2018-07-24T13:05:58.641Z,3.50
2018-07-24T13:07:04.243Z,5.07
2018-07-24T13:08:09.664Z,4.60
2018-07-24T13:09:15.119Z,3.57
2018-07-24T13:10:20.625Z,4.30
2018-07-24T13:11:26.087Z,5.27
2018-07-24T13:12:31.608Z,6.37
2018-07-24T13:13:37.066Z,5.47
2018-07-24T13:14:42.595Z,4.30
2018-07-24T13:15:48.057Z,4.40
2018-07-24T13:16:53.530Z,10.03
2018-07-24T13:17:59.221Z,6.93
2018-07-24T13:19:04.693Z,7.93
2018-07-24T13:20:10.180Z,4.57
2018-07-24T13:21:15.645Z,3.97
2018-07-24T13:22:21.045Z,4.20
2018-07-24T13:23:26.513Z,4.30
2018-07-24T13:24:32.094Z,7.27
2018-07-24T13:25:37.544Z,4.00
2018-07-24T13:26:43.044Z,3.60
2018-07-24T13:27:48.736Z,4.87
2018-07-24T13:28:54.180Z,4.00
2018-07-24T13:29:59.604Z,5.73
2018-07-24T13:31:05.196Z,4.73
2018-07-24T13:32:10.738Z,4.40
2018-07-24T13:33:16.117Z,4.73
2018-07-24T13:34:21.557Z,3.70
2018-07-24T13:35:26.937Z,3.23
2018-07-24T13:36:32.374Z,4.83
2018-07-24T13:37:37.981Z,5.83
2018-07-24T13:38:43.286Z,3.93
2018-07-24T13:39:48.724Z,3.60
2018-07-24T13:40:54.164Z,6.10
2018-07-24T13:41:59.629Z,3.73
2018-07-24T13:43:05.065Z,5.43
2018-07-24T13:44:10.517Z,4.30
2018-07-24T13:45:15.949Z,3.60
2018-07-24T13:46:21.410Z,5.40
2018-07-24T13:47:26.837Z,3.67
2018-07-24T13:48:32.360Z,9.50
2018-07-24T13:49:38.181Z,4.23
2018-07-24T13:50:43.597Z,5.57
2018-07-24T13:51:49.005Z,6.43
2018-07-24T13:52:54.454Z,6.83
2018-07-24T13:53:59.912Z,3.60
2018-07-24T13:55:05.828Z,4.10
2018-07-24T13:56:11.280Z,6.23
2018-07-24T13:57:17.178Z,4.13
2018-07-24T13:58:22.596Z,4.43
2018-07-24T13:59:28.027Z,3.90
2018-07-24T14:00:33.492Z,5.40
2018-07-24T14:01:38.936Z,4.67
2018-07-24T14:02:44.433Z,3.90
2018-07-24T14:03:49.862Z,4.37
2018-07-24T14:04:55.404Z,4.80
2018-07-24T14:06:00.837Z,4.40
2018-07-24T14:07:06.593Z,4.67
2018-07-24T14:08:12.094Z,8.37
2018-07-24T14:09:17.597Z,3.50
2018-07-24T14:10:23.109Z,5.70
2018-07-24T14:11:28.526Z,7.27
2018-07-24T14:12:33.978Z,8.83
2018-07-24T14:13:39.637Z,4.67
2018-07-24T14:14:45.046Z,3.97
2018-07-24T14:15:50.493Z,3.93
2018-07-24T14:16:55.961Z,10.60